createdAt,value
2018-06-10T00:00:07.806Z,11.50
2018-06-10T00:05:12.169Z,11.20
2018-06-10T00:10:16.507Z,11.30
2018-06-10T00:15:20.453Z,11.40
2018-06-10T00:20:23.997Z,11.13
2018-06-10T00:25:29.471Z,12.03
2018-06-10T00:30:33.279Z,11.73
2018-06-10T00:35:36.818Z,11.00
2018-06-10T00:40:40.372Z,12.23
2018-06-10T00:45:43.928Z,12.10
2018-06-10T00:50:47.487Z,12.40
2018-06-10T00:55:51.047Z,12.80
2018-06-10T01:00:54.648Z,12.10
2018-06-10T01:05:58.180Z,12.07
2018-06-10T01:11:01.715Z,11.30
2018-06-10T01:16:05.362Z,11.83
2018-06-10T01:21:08.892Z,12.93
2018-06-10T01:26:17.635Z,11.00
2018-06-10T01:31:21.211Z,11.03
2018-06-10T01:36:25.336Z,13.67
2018-06-10T01:41:29.172Z,12.60
2018-06-10T01:46:32.741Z,12.03
2018-06-10T01:51:37.796Z,11.60
2018-06-10T01:56:42.281Z,11.97
2018-06-10T02:01:45.849Z,11.67
2018-06-10T02:06:50.184Z,11.30
2018-06-10T02:11:54.369Z,11.83
2018-06-10T02:16:57.900Z,11.30
2018-06-10T02:22:01.464Z,11.93
2018-06-10T02:27:05.008Z,11.60
2018-06-10T02:32:08.928Z,11.90
2018-06-10T02:37:14.412Z,13.10
2018-06-10T02:42:18.111Z,12.10
2018-06-10T02:47:21.753Z,12.70
2018-06-10T02:52:25.543Z,13.00
2018-06-10T02:57:28.783Z,12.20
2018-06-10T03:02:32.309Z,12.17
2018-06-10T03:07:36.189Z,12.07
2018-06-10T03:12:39.700Z,11.80
2018-06-10T03:17:43.236Z,11.83
2018-06-10T03:22:48.792Z,11.60
2018-06-10T03:27:52.284Z,12.17
2018-06-10T03:32:55.777Z,12.13
2018-06-10T03:37:59.416Z,12.73
2018-06-10T03:43:03.100Z,12.67
2018-06-10T03:48:06.599Z,12.27
2018-06-10T03:53:10.728Z,12.43
2018-06-10T03:58:14.252Z,12.73
2018-06-10T04:03:17.784Z,13.10
2018-06-10T04:08:22.159Z,11.90
2018-06-10T04:13:30.580Z,12.70
2018-06-10T04:18:34.094Z,12.00
2018-06-10T04:23:37.592Z,15.17
2018-06-10T04:28:41.095Z,14.90
2018-06-10T04:33:44.603Z,14.40
2018-06-10T04:38:48.085Z,15.57
2018-06-10T04:43:51.605Z,15.73
2018-06-10T04:48:55.652Z,16.67
2018-06-10T04:54:00.388Z,14.27
2018-06-10T04:59:03.915Z,15.10
2018-06-10T05:04:07.436Z,14.80
2018-06-10T05:09:11.236Z,14.30
2018-06-10T05:14:14.749Z,14.30
2018-06-10T05:19:18.255Z,15.63
2018-06-10T05:24:21.755Z,15.50
2018-06-10T05:29:25.307Z,14.90
2018-06-10T05:34:28.956Z,14.47
2018-06-10T05:39:32.470Z,14.87
2018-06-10T05:44:36.004Z,14.70
2018-06-10T05:49:39.503Z,16.57
2018-06-10T05:54:43.066Z,15.93
2018-06-10T05:59:46.674Z,15.30
2018-06-10T06:04:50.197Z,15.80
2018-06-10T06:09:54.014Z,14.13
2018-06-10T06:14:57.824Z,14.70
2018-06-10T06:20:02.081Z,14.53
2018-06-10T06:25:05.603Z,13.70
2018-06-10T06:30:11.884Z,13.40
2018-06-10T06:35:15.934Z,12.80
2018-06-10T06:40:19.763Z,11.80
2018-06-10T06:45:23.841Z,11.70
2018-06-10T06:50:27.367Z,11.37
2018-06-10T06:55:31.265Z,11.50
2018-06-10T07:00:35.873Z,12.67
2018-06-10T07:05:39.379Z,13.97
2018-06-10T07:10:42.896Z,13.10
2018-06-10T07:15:48.348Z,13.50
2018-06-10T07:20:52.469Z,13.37
2018-06-10T07:25:56.193Z,11.90
2018-06-10T07:30:59.701Z,11.43
2018-06-10T07:36:03.473Z,8.67
2018-06-10T07:41:06.679Z,8.27
2018-06-10T07:46:10.561Z,10.70
2018-06-10T07:51:14.437Z,11.73
2018-06-10T07:56:18.802Z,11.03
2018-06-10T08:01:22.803Z,10.50
2018-06-10T08:06:26.351Z,10.50
2018-06-10T08:11:29.972Z,8.87
2018-06-10T08:16:33.563Z,9.53
2018-06-10T08:21:37.163Z,9.53
2018-06-10T08:26:40.722Z,9.10
2018-06-10T08:31:44.316Z,8.37
2018-06-10T08:36:47.867Z,9.20
2018-06-10T08:41:51.403Z,9.00
2018-06-10T08:46:55.288Z,8.30
2018-06-10T08:51:58.830Z,6.73
2018-06-10T08:57:04.304Z,7.00
2018-06-10T09:02:09.663Z,6.47
2018-06-10T09:07:13.180Z,7.07
2018-06-10T09:12:16.709Z,10.73
2018-06-10T09:17:20.384Z,7.10
2018-06-10T09:22:24.845Z,6.83
2018-06-10T09:27:29.948Z,5.70
2018-06-10T09:32:33.561Z,6.17
2018-06-10T09:37:37.077Z,6.93
2018-06-10T09:42:40.598Z,5.93
2018-06-10T09:47:44.173Z,5.60
2018-06-10T09:52:47.701Z,6.00
2018-06-10T09:57:52.879Z,5.83
2018-06-10T10:02:57.527Z,6.07
2018-06-10T10:08:03.227Z,5.27
2018-06-10T10:13:08.314Z,5.50
2018-06-10T10:18:12.911Z,4.77
2018-06-10T10:23:17.428Z,5.43
2018-06-10T10:28:20.974Z,5.30
2018-06-10T10:33:24.219Z,5.20
2018-06-10T10:38:27.815Z,4.60
2018-06-10T10:43:31.028Z,4.50
2018-06-10T10:48:34.815Z,4.63
2018-06-10T10:53:38.374Z,4.40
2018-06-10T10:58:41.948Z,4.17
2018-06-10T11:03:45.500Z,4.30
2018-06-10T11:08:49.280Z,3.90
2018-06-10T11:13:52.805Z,4.00
2018-06-10T11:18:56.372Z,3.67
2018-06-10T11:24:00.752Z,3.80
2018-06-10T11:29:04.263Z,3.80
2018-06-10T11:34:07.795Z,3.03
2018-06-10T11:39:11.332Z,3.37
2018-06-10T11:44:14.852Z,3.20
2018-06-10T11:49:18.371Z,3.57
2018-06-10T11:54:22.193Z,3.40
2018-06-10T11:59:25.756Z,3.03
2018-06-10T12:04:29.268Z,3.33
2018-06-10T12:09:32.792Z,3.10
2018-06-10T12:14:36.528Z,4.80
2018-06-10T12:19:40.007Z,3.10
2018-06-10T12:24:46.194Z,2.80
2018-06-10T12:29:50.454Z,2.60
2018-06-10T12:34:53.973Z,2.57
2018-06-10T12:39:58.140Z,2.97
2018-06-10T12:45:01.961Z,2.60
2018-06-10T12:50:06.473Z,2.77
2018-06-10T12:55:10.024Z,2.73
2018-06-10T13:00:13.600Z,2.40
2018-06-10T13:05:18.151Z,2.73
2018-06-10T13:10:21.718Z,2.30
2018-06-10T13:15:25.272Z,2.43
2018-06-10T13:20:28.972Z,3.10
2018-06-10T13:25:32.522Z,2.30
2018-06-10T13:30:36.125Z,2.73
2018-06-10T13:35:39.713Z,2.43
2018-06-10T13:40:43.742Z,2.37
2018-06-10T13:45:47.278Z,2.40
2018-06-10T13:50:51.949Z,2.20
2018-06-10T13:55:57.498Z,2.47
2018-06-10T14:01:02.941Z,2.17
2018-06-10T14:06:07.219Z,2.43
2018-06-10T14:11:10.706Z,2.60
2018-06-10T14:16:14.327Z,3.10
2018-06-10T14:21:17.886Z,3.17
2018-06-10T14:26:21.430Z,2.93
2018-06-10T14:31:25.582Z,2.90
2018-06-10T14:36:29.119Z,2.10
2018-06-10T14:41:32.656Z,1.50
2018-06-10T14:46:37.188Z,1.67
2018-06-10T14:51:40.700Z,1.83
2018-06-10T14:56:44.539Z,2.10
2018-06-10T15:01:48.404Z,2.10
2018-06-10T15:06:51.952Z,2.20
2018-06-10T15:11:55.523Z,1.80
2018-06-10T15:16:59.079Z,2.37
2018-06-10T15:22:02.632Z,1.87
2018-06-10T15:27:05.840Z,1.87
2018-06-10T15:32:09.393Z,1.90
2018-06-10T15:37:12.948Z,2.07
2018-06-10T15:42:16.567Z,2.10
2018-06-10T15:47:20.496Z,2.30
2018-06-10T15:52:24.029Z,2.20
2018-06-10T15:57:27.603Z,1.90
2018-06-10T16:02:31.464Z,2.10
2018-06-10T16:07:34.966Z,1.80
2018-06-10T16:12:38.470Z,1.90
2018-06-10T16:17:41.981Z,2.07
2018-06-10T16:22:45.282Z,2.00
2018-06-10T16:28:05.278Z,2.63
2018-06-10T16:33:08.795Z,2.00
2018-06-10T16:38:12.347Z,2.00
2018-06-10T16:43:16.223Z,2.70
2018-06-10T16:48:19.714Z,2.23
2018-06-10T16:53:23.481Z,2.03
2018-06-10T16:58:27.262Z,2.20
2018-06-10T17:03:30.791Z,2.40
2018-06-10T17:08:34.372Z,3.30
2018-06-10T17:13:38.203Z,3.60
2018-06-10T17:18:41.748Z,2.20
2018-06-10T17:23:46.152Z,2.47
2018-06-10T17:28:49.704Z,2.00
2018-06-10T17:33:53.315Z,2.37
2018-06-10T17:38:56.903Z,2.50
2018-06-10T17:44:00.749Z,2.20
2018-06-10T17:49:04.456Z,3.20
2018-06-10T17:54:08.032Z,2.20
2018-06-10T17:59:11.649Z,2.30
2018-06-10T18:04:14.809Z,2.20
2018-06-10T18:09:18.348Z,2.80
2018-06-10T18:14:22.011Z,2.53
2018-06-10T18:19:25.787Z,2.70
2018-06-10T18:24:31.174Z,2.80
2018-06-10T18:29:36.580Z,7.30
2018-06-10T18:34:40.143Z,5.67
2018-06-10T18:39:44.001Z,6.20
2018-06-10T18:44:47.564Z,4.13
2018-06-10T18:49:51.571Z,4.50
2018-06-10T18:54:56.503Z,8.00
2018-06-10T19:00:00.503Z,7.63
2018-06-10T19:05:04.924Z,6.00
2018-06-10T19:10:08.436Z,5.63
2018-06-10T19:15:11.987Z,4.60
2018-06-10T19:20:15.778Z,3.70
2018-06-10T19:25:19.319Z,3.37
2018-06-10T19:30:22.844Z,3.87
2018-06-10T19:35:26.376Z,4.33
2018-06-10T19:40:29.895Z,4.50
2018-06-10T19:45:33.453Z,4.80
2018-06-10T19:50:37.302Z,4.17
2018-06-10T19:55:41.017Z,4.80
2018-06-10T20:00:44.620Z,4.13
2018-06-10T20:05:48.532Z,4.50
2018-06-10T20:10:52.060Z,4.03
2018-06-10T20:15:55.650Z,4.07
2018-06-10T20:20:59.187Z,5.27
2018-06-10T20:26:02.703Z,6.27
2018-06-10T20:31:07.234Z,5.00
2018-06-10T20:36:10.745Z,4.83
2018-06-10T20:41:14.903Z,5.40
2018-06-10T20:46:18.430Z,5.53
2018-06-10T20:51:21.929Z,4.47
2018-06-10T20:56:25.553Z,4.43
2018-06-10T21:01:29.249Z,4.00
2018-06-10T21:06:32.991Z,6.27
2018-06-10T21:11:36.713Z,4.20
2018-06-10T21:16:40.263Z,3.90
2018-06-10T21:21:44.103Z,4.27
2018-06-10T21:26:47.946Z,3.80
2018-06-10T21:31:51.715Z,3.70
2018-06-10T21:36:55.394Z,3.60
2018-06-10T21:41:58.912Z,3.80
2018-06-10T21:47:02.456Z,3.87
2018-06-10T21:52:06.011Z,3.43
2018-06-10T21:57:09.797Z,4.30
2018-06-10T22:02:13.380Z,3.90
2018-06-10T22:07:17.219Z,4.23
2018-06-10T22:12:21.005Z,4.53
2018-06-10T22:17:24.509Z,4.80
2018-06-10T22:22:28.000Z,4.77
2018-06-10T22:27:32.163Z,4.53
2018-06-10T22:32:35.673Z,3.80
2018-06-10T22:37:39.178Z,3.87
2018-06-10T22:42:42.720Z,4.10
2018-06-10T22:47:46.621Z,4.37
2018-06-10T22:52:59.328Z,4.30
2018-06-10T22:58:02.867Z,4.40
2018-06-10T23:03:06.105Z,4.43
2018-06-10T23:08:09.642Z,4.03
2018-06-10T23:13:13.799Z,4.40
2018-06-10T23:18:18.608Z,4.23
2018-06-10T23:23:22.119Z,4.27
2018-06-10T23:28:25.668Z,4.30
2018-06-10T23:33:29.860Z,4.40
2018-06-10T23:38:35.259Z,3.90
2018-06-10T23:43:38.804Z,4.23
2018-06-10T23:48:42.296Z,4.60
2018-06-10T23:53:45.804Z,5.27
2018-06-10T23:58:49.340Z,5.23
